Elmore, Illinois
Current Conditions -  °F | °C
As of 9:54 PM on Sunday 23 Nov 2014 (Local Time) from KPIA Reporting Station
Moderate Fog Moderate Fog  
Wind Chill: 51°   Ceiling: 200
Heat Index: 51°   Visibility: 0.5mi
Dew Point: 48°   Wind: 6mph
Humidity: 89%   Direction: 210°SSW
Pressure: 29.18"   Gusts: NA
Location:  40.9444°N, 89.9421°W
Report Text: KPIA 240354Z 21005KT 1/2SM R13/6000VP6000FT FG VV002 11/09 A2918 RMK AO2 RAE40 SLP882 P0001 T01060089
Loading
Personal Weather Stations






























Interactive Weather Map New forecast layout! Learn more

10-Day Weather Forecast

Advertisements
Track Severe Weather on mobile